Time;durP1;ratioP1;P1;durP2;ratioP2;P2;SDS_P1;SDS_P2;PMS_P1;PMS_P2;Temp;Humidity;BMP_temperature;BMP_pressure;BME280_temperature;BME280_humidity;BME280_pressure;Samples;Min_cycle;Max_cycle;Signal;HPM_P1;HPM_P2
2020/12/30 00:01:07;;;;;;;2.17;1.48;;;2.80;76.30;;;;;;5074414;28;20032;-77
2020/12/30 00:03:34;;;;;;;1.65;1.30;;;2.80;76.40;;;;;;5075284;28;20048;-76
2020/12/30 00:06:00;;;;;;;2.15;1.30;;;2.70;76.40;;;;;;5075144;28;20119;-77
2020/12/30 00:08:25;;;;;;;2.03;1.40;;;2.80;76.40;;;;;;5074900;28;20062;-77
2020/12/30 00:10:51;;;;;;;3.83;1.40;;;2.70;76.40;;;;;;5075033;28;20191;-78
2020/12/30 00:13:18;;;;;;;2.58;1.20;;;2.70;76.50;;;;;;5074748;28;20039;-77
2020/12/30 00:15:43;;;;;;;4.00;2.08;;;2.70;76.50;;;;;;5074996;28;20047;-77
2020/12/30 00:18:09;;;;;;;3.17;1.30;;;2.70;76.60;;;;;;5075008;28;20020;-79
2020/12/30 00:20:35;;;;;;;2.47;1.75;;;2.80;76.50;;;;;;5075316;28;20480;-79
2020/12/30 00:23:00;;;;;;;2.78;1.20;;;2.80;76.40;;;;;;5074704;28;20027;-79
2020/12/30 00:25:27;;;;;;;2.40;0.90;;;2.70;76.00;;;;;;5075080;28;20028;-79
2020/12/30 00:27:53;;;;;;;1.20;0.93;;;2.80;75.50;;;;;;5058659;28;20028;-80
2020/12/30 00:30:20;;;;;;;2.00;0.85;;;2.80;75.20;;;;;;5092895;28;20024;-80
2020/12/30 00:32:48;;;;;;;1.27;0.90;;;2.90;75.10;;;;;;5074882;28;20032;-80
2020/12/30 00:35:15;;;;;;;1.73;0.93;;;2.80;74.90;;;;;;5074934;28;20060;-80
2020/12/30 00:37:41;;;;;;;2.63;0.95;;;2.80;74.80;;;;;;5058146;28;20051;-78
2020/12/30 00:40:07;;;;;;;2.97;1.33;;;2.80;74.90;;;;;;5074995;28;20024;-80
2020/12/30 00:42:35;;;;;;;1.52;0.98;;;2.70;75.20;;;;;;5074374;28;20059;-79
2020/12/30 00:45:01;;;;;;;2.33;0.98;;;2.80;75.30;;;;;;5074827;28;20491;-79
2020/12/30 00:47:28;;;;;;;1.38;0.85;;;2.80;76.30;;;;;;5074842;28;20056;-80
2020/12/30 00:49:54;;;;;;;2.88;1.02;;;2.80;75.60;;;;;;5074447;28;20027;-80
2020/12/30 00:52:20;;;;;;;3.00;1.25;;;2.80;75.50;;;;;;5074705;28;20031;-81
2020/12/30 00:54:46;;;;;;;3.45;0.80;;;2.80;75.60;;;;;;5073896;28;20405;-80
2020/12/30 00:57:11;;;;;;;2.35;0.90;;;2.80;75.80;;;;;;5074620;28;20066;-80
2020/12/30 00:59:39;;;;;;;3.42;0.98;;;2.80;76.00;;;;;;5074924;28;20016;-80
2020/12/30 01:02:05;;;;;;;1.67;0.90;;;2.70;76.20;;;;;;5074663;28;20050;-79
2020/12/30 01:04:33;;;;;;;1.55;0.93;;;2.70;76.30;;;;;;5073816;28;20496;-80
2020/12/30 01:06:59;;;;;;;1.38;0.82;;;2.70;76.30;;;;;;5074615;28;20020;-79
2020/12/30 01:09:26;;;;;;;1.00;0.80;;;2.70;76.30;;;;;;5092909;28;20036;-80
2020/12/30 01:11:53;;;;;;;2.10;0.77;;;2.70;76.40;;;;;;5074581;28;20081;-79
2020/12/30 01:14:18;;;;;;;1.67;1.00;;;2.70;76.20;;;;;;5076458;28;20020;-78
2020/12/30 01:16:52;;;;;;;2.22;1.00;;;2.70;76.00;;;;;;5078320;28;20062;-78
2020/12/30 01:19:18;;;;;;;2.60;0.90;;;2.70;75.80;;;;;;5061567;28;20024;-79
2020/12/30 01:21:44;;;;;;;3.05;1.05;;;2.80;75.70;;;;;;5078150;28;20028;-78
2020/12/30 01:24:09;;;;;;;8.48;1.45;;;2.80;75.70;;;;;;5077734;28;20031;-79
2020/12/30 01:26:35;;;;;;;3.97;0.80;;;2.80;75.60;;;;;;5077787;28;20016;-79
2020/12/30 01:29:02;;;;;;;2.13;1.00;;;2.80;75.70;;;;;;5096014;28;20031;-78
2020/12/30 01:31:29;;;;;;;2.95;0.90;;;2.80;75.70;;;;;;5061670;28;20020;-78
2020/12/30 01:33:55;;;;;;;5.55;1.35;;;2.70;75.80;;;;;;5078029;28;20021;-77
2020/12/30 01:36:22;;;;;;;3.55;1.13;;;2.70;75.90;;;;;;5061056;28;20032;-79
2020/12/30 01:38:49;;;;;;;2.92;0.98;;;2.70;75.80;;;;;;5077255;28;20048;-78
2020/12/30 01:41:15;;;;;;;1.77;1.10;;;2.70;76.00;;;;;;5077796;28;20119;-78
2020/12/30 01:44:13;;;;;;;4.25;1.02;;;2.70;76.10;;;;;;5077597;28;20020;-78
2020/12/30 01:46:44;;;;;;;1.60;0.95;;;2.70;76.30;;;;;;5073372;28;20141;-78
2020/12/30 01:49:16;;;;;;;3.72;1.33;;;2.70;76.40;;;;;;5078017;28;20073;-79
2020/12/30 01:51:44;;;;;;;3.90;1.20;;;2.70;76.50;;;;;;5077764;28;20476;-78
2020/12/30 01:54:14;;;;;;;5.57;2.17;;;2.70;76.50;;;;;;5077773;28;20023;-78
2020/12/30 01:56:42;;;;;;;7.47;2.50;;;2.70;76.60;;;;;;5077570;28;20032;-78
2020/12/30 01:59:14;;;;;;;6.63;2.03;;;2.70;76.70;;;;;;5076951;28;20024;-77
2020/12/30 02:01:42;;;;;;;3.47;1.23;;;2.60;76.70;;;;;;5077519;28;20047;-78
2020/12/30 02:04:15;;;;;;;1.58;0.90;;;2.70;76.80;;;;;;5077443;28;20025;-78
2020/12/30 02:06:42;;;;;;;3.08;0.90;;;2.60;76.80;;;;;;5077372;28;20055;-77
2020/12/30 02:09:07;;;;;;;2.17;1.27;;;2.60;76.90;;;;;;5095130;28;20054;-77
2020/12/30 02:11:34;;;;;;;2.42;1.33;;;2.50;76.90;;;;;;5076680;28;20036;-78
2020/12/30 02:14:08;;;;;;;2.95;1.23;;;2.50;76.90;;;;;;5077242;28;20073;-77
2020/12/30 02:16:52;;;;;;;4.18;1.58;;;2.50;77.00;;;;;;5077352;28;20040;-79
2020/12/30 02:19:20;;;;;;;2.15;0.90;;;2.50;76.90;;;;;;5095111;28;20392;-78
2020/12/30 02:21:46;;;;;;;1.42;0.90;;;2.60;76.80;;;;;;5076787;28;20024;-79
2020/12/30 02:24:19;;;;;;;0.93;0.77;;;2.60;76.70;;;;;;5076420;28;20209;-79
2020/12/30 02:26:45;;;;;;;3.13;1.13;;;2.50;76.70;;;;;;5060269;28;20032;-79
2020/12/30 02:29:10;;;;;;;2.78;0.88;;;2.50;76.80;;;;;;5076709;28;20032;-77
2020/12/30 02:31:36;;;;;;;1.83;0.88;;;2.50;76.80;;;;;;5076928;28;20020;-77
2020/12/30 02:34:01;;;;;;;4.43;0.98;;;2.40;76.90;;;;;;5094032;28;20030;-78
2020/12/30 02:36:27;;;;;;;1.00;0.70;;;2.40;77.00;;;;;;5094283;28;20043;-77
2020/12/30 02:38:53;;;;;;;1.88;0.80;;;2.30;77.20;;;;;;5076451;28;20066;-77
2020/12/30 02:41:20;;;;;;;3.50;0.93;;;2.30;77.40;;;;;;5076380;28;20028;-77
2020/12/30 02:43:47;;;;;;;2.42;0.90;;;2.30;77.50;;;;;;5076455;28;20466;-77
2020/12/30 02:46:13;;;;;;;3.95;0.80;;;2.30;77.60;;;;;;5059657;28;20101;-78
2020/12/30 02:48:38;;;;;;;0.90;0.60;;;2.30;77.50;;;;;;5076120;28;20082;-77
2020/12/30 02:51:04;;;;;;;3.03;1.40;;;2.20;77.40;;;;;;5076204;28;20547;-77
2020/12/30 02:53:31;;;;;;;1.95;0.82;;;2.30;77.40;;;;;;5075944;28;20024;-77
2020/12/30 02:55:56;;;;;;;0.93;0.70;;;2.30;77.20;;;;;;5076178;28;20084;-78
2020/12/30 02:58:22;;;;;;;2.60;1.08;;;2.20;77.10;;;;;;5075715;28;20115;-77
2020/12/30 03:00:47;;;;;;;1.73;0.70;;;2.20;77.00;;;;;;5076042;28;20031;-78
2020/12/30 03:03:13;;;;;;;1.90;0.60;;;2.20;76.90;;;;;;5075961;28;20036;-77
2020/12/30 03:05:39;;;;;;;2.58;1.10;;;2.20;76.90;;;;;;5076152;28;20016;-78
2020/12/30 03:08:04;;;;;;;3.50;1.10;;;2.10;76.90;;;;;;5076020;28;20345;-79
2020/12/30 03:10:30;;;;;;;4.05;1.05;;;2.20;77.00;;;;;;5076070;28;20024;-79
2020/12/30 03:12:55;;;;;;;1.38;0.70;;;2.10;76.90;;;;;;5059192;28;20031;-78
2020/12/30 03:15:22;;;;;;;1.90;0.93;;;2.10;76.80;;;;;;5076037;28;20032;-78
2020/12/30 03:17:47;;;;;;;2.58;1.05;;;2.10;77.00;;;;;;5094333;28;20024;-79
2020/12/30 03:20:13;;;;;;;1.42;1.02;;;2.10;77.20;;;;;;5076047;28;20114;-79
2020/12/30 03:22:39;;;;;;;4.22;0.90;;;2.10;77.10;;;;;;5075901;28;20020;-79
2020/12/30 03:25:06;;;;;;;4.00;1.20;;;2.10;77.30;;;;;;5094063;28;20483;-79
2020/12/30 03:27:31;;;;;;;3.85;1.17;;;2.10;77.60;;;;;;5075862;28;20502;-78
2020/12/30 03:29:57;;;;;;;2.13;1.02;;;2.10;77.70;;;;;;5075482;28;20024;-79
2020/12/30 03:32:23;;;;;;;3.30;1.27;;;2.00;77.70;;;;;;5075896;28;20024;-78
2020/12/30 03:34:48;;;;;;;2.90;1.45;;;2.00;77.80;;;;;;5075803;28;20032;-79
2020/12/30 03:37:14;;;;;;;6.63;2.13;;;2.10;78.00;;;;;;5074999;28;20056;-79
2020/12/30 03:39:40;;;;;;;2.97;1.30;;;2.20;77.80;;;;;;5075498;28;20020;-78
2020/12/30 03:42:06;;;;;;;2.35;0.95;;;2.20;77.70;;;;;;5093531;28;20031;-78
2020/12/30 03:44:33;;;;;;;2.90;0.73;;;2.20;77.60;;;;;;5075889;28;20016;-78
2020/12/30 03:47:00;;;;;;;1.00;0.88;;;2.20;77.40;;;;;;5075361;28;20024;-79
2020/12/30 03:49:26;;;;;;;1.15;1.05;;;2.20;77.30;;;;;;5075260;28;20020;-78
2020/12/30 03:51:51;;;;;;;1.52;1.00;;;2.30;77.30;;;;;;5075323;28;20028;-77
2020/12/30 03:54:17;;;;;;;1.70;1.02;;;2.30;77.30;;;;;;5075997;28;20024;-78
2020/12/30 03:56:42;;;;;;;2.17;1.15;;;2.20;77.30;;;;;;5075769;28;20119;-78
2020/12/30 03:59:08;;;;;;;1.67;0.90;;;2.20;77.50;;;;;;5076462;28;20016;-78
2020/12/30 04:01:33;;;;;;;2.72;1.40;;;2.10;77.50;;;;;;5076789;28;20077;-79
2020/12/30 04:03:59;;;;;;;2.10;1.17;;;2.10;77.70;;;;;;5077577;28;20372;-79
2020/12/30 04:06:24;;;;;;;1.50;1.10;;;2.10;77.90;;;;;;5090199;28;20024;-78
2020/12/30 04:08:50;;;;;;;2.03;1.02;;;2.10;78.10;;;;;;5087054;28;20480;-78
2020/12/30 04:11:15;;;;;;;2.75;0.90;;;2.10;78.10;;;;;;5084985;28;20038;-78
2020/12/30 04:13:41;;;;;;;3.33;1.05;;;2.10;78.10;;;;;;5083050;28;20537;-80
2020/12/30 04:16:07;;;;;;;1.40;1.10;;;2.10;78.10;;;;;;5077115;28;20036;-79
2020/12/30 04:18:32;;;;;;;3.80;0.90;;;2.10;78.10;;;;;;5078236;28;20024;-79
2020/12/30 04:20:58;;;;;;;2.78;1.00;;;2.10;78.00;;;;;;5059430;28;20020;-79
2020/12/30 04:23:23;;;;;;;1.20;0.82;;;2.10;77.90;;;;;;5075259;28;20028;-79
2020/12/30 04:25:49;;;;;;;1.33;0.90;;;2.10;77.80;;;;;;5074994;28;20028;-79
2020/12/30 04:28:15;;;;;;;3.05;1.00;;;2.10;77.90;;;;;;5074905;28;20354;-78
2020/12/30 04:30:41;;;;;;;1.48;0.88;;;2.10;78.10;;;;;;5093271;28;20544;-78
2020/12/30 04:33:10;;;;;;;1.90;0.80;;;2.10;78.20;;;;;;5074819;28;20066;-78
2020/12/30 04:35:36;;;;;;;1.42;0.95;;;2.10;78.10;;;;;;5074560;28;20038;-79
2020/12/30 04:38:04;;;;;;;2.75;0.50;;;2.10;78.00;;;;;;5093025;28;20131;-79
2020/12/30 04:40:30;;;;;;;1.70;0.93;;;2.10;77.80;;;;;;5075048;28;20081;-78
2020/12/30 04:43:00;;;;;;;1.27;0.98;;;2.10;77.70;;;;;;5092994;28;20061;-78
2020/12/30 04:45:26;;;;;;;2.10;0.80;;;2.10;78.60;;;;;;5074719;28;20028;-78
2020/12/30 04:47:54;;;;;;;3.67;0.82;;;2.00;77.60;;;;;;5059502;28;20032;-78
2020/12/30 04:50:22;;;;;;;3.55;0.93;;;2.10;77.50;;;;;;5079011;28;20081;-79
2020/12/30 04:52:48;;;;;;;2.28;1.23;;;2.10;77.40;;;;;;5078750;28;20422;-79
2020/12/30 04:55:16;;;;;;;1.30;0.80;;;2.20;77.40;;;;;;5078843;28;20491;-78
2020/12/30 04:57:54;;;;;;;0.95;0.68;;;2.10;77.30;;;;;;5078162;28;20021;-78
2020/12/30 05:00:20;;;;;;;1.60;0.70;;;2.10;77.30;;;;;;5078792;28;20111;-78
2020/12/30 05:02:52;;;;;;;3.13;0.80;;;2.10;77.10;;;;;;5078028;28;20124;-78
2020/12/30 05:05:19;;;;;;;0.95;0.60;;;2.10;77.20;;;;;;5084633;28;20026;-78
2020/12/30 05:07:45;;;;;;;1.52;0.63;;;2.20;77.10;;;;;;5092979;28;20032;-78
2020/12/30 05:10:14;;;;;;;2.25;0.90;;;2.20;76.70;;;;;;5104429;28;20012;-78
2020/12/30 05:12:40;;;;;;;1.13;0.80;;;2.30;76.70;;;;;;5086524;28;20372;-77
2020/12/30 05:15:06;;;;;;;1.85;0.80;;;2.20;76.50;;;;;;5078631;28;20115;-79
2020/12/30 05:17:33;;;;;;;2.65;0.85;;;2.20;76.50;;;;;;5077655;28;20499;-78
2020/12/30 05:19:59;;;;;;;2.17;0.82;;;2.20;76.50;;;;;;5096011;28;20044;-78
2020/12/30 05:22:25;;;;;;;0.82;0.60;;;2.10;76.50;;;;;;5078018;28;20063;-77
2020/12/30 05:24:51;;;;;;;1.90;1.00;;;2.10;76.80;;;;;;5096152;28;20065;-78
2020/12/30 05:27:19;;;;;;;3.10;0.93;;;2.10;76.90;;;;;;5077904;28;20043;-76
2020/12/30 05:29:49;;;;;;;1.33;0.70;;;2.10;77.00;;;;;;5077840;28;20020;-77
2020/12/30 05:32:16;;;;;;;1.27;0.60;;;2.10;76.90;;;;;;5096207;28;20077;-78
2020/12/30 05:34:41;;;;;;;0.75;0.47;;;2.10;77.00;;;;;;5077781;28;20024;-78
2020/12/30 05:37:11;;;;;;;1.70;0.63;;;2.10;77.00;;;;;;5077559;28;20506;-78
2020/12/30 05:39:37;;;;;;;2.35;0.60;;;2.10;76.90;;;;;;5077734;28;20048;-78
2020/12/30 05:42:17;;;;;;;1.73;0.73;;;2.20;76.90;;;;;;5077797;28;20503;-78
2020/12/30 05:44:48;;;;;;;0.70;0.60;;;2.20;76.80;;;;;;5077624;28;20418;-78
2020/12/30 05:47:20;;;;;;;3.42;0.90;;;2.20;76.80;;;;;;5078143;28;20119;-77
2020/12/30 05:49:49;;;;;;;1.77;0.80;;;2.20;76.90;;;;;;5096096;28;20024;-79
2020/12/30 05:52:24;;;;;;;2.70;1.27;;;2.10;76.90;;;;;;5060999;28;20396;-78
2020/12/30 05:54:55;;;;;;;1.17;0.75;;;2.10;77.00;;;;;;5077118;28;20024;-78
2020/12/30 05:57:33;;;;;;;3.20;0.60;;;2.20;76.80;;;;;;5077371;28;20093;-78
2020/12/30 06:00:10;;;;;;;2.58;0.60;;;2.10;76.80;;;;;;5076729;28;20027;-77
2020/12/30 06:02:40;;;;;;;2.42;1.02;;;2.10;76.80;;;;;;5095560;28;20024;-77
2020/12/30 06:05:18;;;;;;;1.25;0.55;;;2.10;76.90;;;;;;5077463;28;20028;-77
2020/12/30 06:07:45;;;;;;;2.65;0.73;;;2.00;76.90;;;;;;5077193;28;20028;-78
2020/12/30 06:10:15;;;;;;;1.88;0.90;;;2.00;77.00;;;;;;5077022;28;20028;-79
2020/12/30 06:12:55;;;;;;;0.98;0.55;;;2.00;77.10;;;;;;5077399;28;20024;-79
2020/12/30 06:15:26;;;;;;;4.50;1.70;;;2.00;77.20;;;;;;5077288;28;20094;-77
2020/12/30 06:18:05;;;;;;;3.22;1.35;;;2.00;78.00;;;;;;5072661;28;20030;-79
2020/12/30 06:20:39;;;;;;;3.13;1.10;;;2.00;77.20;;;;;;5094823;28;20019;-78
2020/12/30 06:23:13;;;;;;;2.72;0.98;;;1.90;77.00;;;;;;5076604;28;20024;-78
2020/12/30 06:25:41;;;;;;;2.40;0.93;;;1.90;77.20;;;;;;5077036;28;20024;-78
2020/12/30 06:28:15;;;;;;;2.03;1.00;;;1.90;77.20;;;;;;5076778;28;20028;-79
2020/12/30 06:30:48;;;;;;;1.67;0.80;;;1.80;77.40;;;;;;5095023;28;20497;-80
2020/12/30 06:33:20;;;;;;;2.92;1.10;;;1.70;77.50;;;;;;5077091;28;20081;-78
2020/12/30 06:35:46;;;;;;;3.22;1.55;;;1.70;77.50;;;;;;5076611;28;20032;-79
2020/12/30 06:38:29;;;;;;;8.32;1.80;;;1.80;77.50;;;;;;5076346;28;20059;-79
2020/12/30 06:40:58;;;;;;;2.40;1.45;;;1.90;77.60;;;;;;5076635;28;20111;-80
2020/12/30 06:43:44;;;;;;;3.55;1.58;;;1.80;77.50;;;;;;5076608;28;20024;-79
2020/12/30 06:46:10;;;;;;;3.05;1.17;;;1.80;77.60;;;;;;5076609;28;20024;-80
2020/12/30 06:48:59;;;;;;;3.03;1.30;;;1.80;77.60;;;;;;5077551;28;20055;-79
2020/12/30 06:51:26;;;;;;;2.92;1.45;;;1.90;77.50;;;;;;5081946;28;20062;-79
2020/12/30 06:53:56;;;;;;;4.30;1.98;;;1.80;77.40;;;;;;5077778;28;20031;-79
2020/12/30 06:56:45;;;;;;;4.82;1.58;;;1.80;77.50;;;;;;5076312;28;20032;-79
2020/12/30 06:59:27;;;;;;;1.58;1.00;;;1.80;77.50;;;;;;5075699;28;20027;-79
2020/12/30 07:02:08;;;;;;;5.00;1.70;;;1.90;77.60;;;;;;5076119;28;20488;-79
2020/12/30 07:04:37;;;;;;;5.47;1.90;;;1.90;77.50;;;;;;5076368;28;20075;-79
2020/12/30 07:07:19;;;;;;;3.58;1.67;;;1.90;77.50;;;;;;5094229;28;20026;-79
2020/12/30 07:09:45;;;;;;;2.10;1.05;;;1.90;78.10;;;;;;5075512;28;20043;-79
2020/12/30 07:12:10;;;;;;;2.47;1.23;;;1.90;77.40;;;;;;5075873;28;20020;-80
2020/12/30 07:14:37;;;;;;;2.17;0.85;;;1.90;77.20;;;;;;5075547;28;20467;-79
2020/12/30 07:17:06;;;;;;;4.10;1.42;;;1.90;77.20;;;;;;5075989;28;20557;-79
2020/12/30 07:19:33;;;;;;;3.55;1.60;;;1.90;77.10;;;;;;5074790;28;20064;-80
2020/12/30 07:22:03;;;;;;;3.28;1.25;;;2.00;77.10;;;;;;5075984;28;20028;-79
2020/12/30 07:24:53;;;;;;;7.22;2.00;;;1.90;77.00;;;;;;5075908;28;20020;-80
2020/12/30 07:27:20;;;;;;;6.35;1.80;;;1.90;77.10;;;;;;5075807;28;20020;-80
2020/12/30 07:29:48;;;;;;;6.90;2.05;;;1.90;77.20;;;;;;5075686;28;20086;-81
2020/12/30 07:32:17;;;;;;;7.07;3.03;;;1.90;77.20;;;;;;5076253;28;20024;-80
2020/12/30 07:34:47;;;;;;;3.88;2.08;;;1.90;77.30;;;;;;5076186;28;20488;-80
2020/12/30 07:37:15;;;;;;;3.58;1.92;;;1.90;77.10;;;;;;5076013;28;20249;-80
2020/12/30 07:39:42;;;;;;;3.88;1.92;;;1.90;77.10;;;;;;5074234;28;20073;-79
2020/12/30 07:42:16;;;;;;;2.20;1.52;;;1.90;77.20;;;;;;5058796;28;20028;-80
2020/12/30 07:44:47;;;;;;;2.92;2.03;;;1.90;77.10;;;;;;5093744;28;20020;-80
2020/12/30 07:47:14;;;;;;;4.13;2.10;;;1.90;77.20;;;;;;5093431;28;20024;-79
2020/12/30 07:49:40;;;;;;;3.50;1.70;;;1.90;77.30;;;;;;5058629;28;20617;-80
2020/12/30 07:52:06;;;;;;;2.63;1.38;;;1.90;77.30;;;;;;5059136;28;20024;-78
2020/12/30 07:54:33;;;;;;;4.63;1.88;;;1.90;77.20;;;;;;5076165;28;20020;-78
2020/12/30 07:57:12;;;;;;;2.90;1.98;;;2.00;77.00;;;;;;5077146;28;20035;-80
2020/12/30 07:59:48;;;;;;;2.58;1.38;;;2.00;76.90;;;;;;5074980;28;20396;-78
2020/12/30 08:02:16;;;;;;;4.78;1.40;;;2.00;76.60;;;;;;5075378;28;20032;-77
2020/12/30 08:04:45;;;;;;;2.47;1.48;;;2.00;76.50;;;;;;5076738;28;20081;-78
2020/12/30 08:07:12;;;;;;;4.30;1.35;;;2.10;76.40;;;;;;5075461;28;20020;-78
2020/12/30 08:09:43;;;;;;;3.30;1.58;;;2.20;76.30;;;;;;5075108;28;20437;-80
2020/12/30 08:12:14;;;;;;;4.97;1.88;;;2.30;75.90;;;;;;5058655;28;20024;-80
2020/12/30 08:14:42;;;;;;;6.47;2.00;;;2.30;75.50;;;;;;5075060;28;20032;-79
2020/12/30 08:17:12;;;;;;;4.60;2.30;;;2.30;75.30;;;;;;5074887;28;20024;-80
2020/12/30 08:19:41;;;;;;;4.40;2.53;;;2.40;75.10;;;;;;5074280;28;20020;-78
2020/12/30 08:22:12;;;;;;;3.88;1.70;;;2.40;74.70;;;;;;5074356;28;20035;-79
2020/12/30 08:24:42;;;;;;;6.43;1.70;;;2.50;74.50;;;;;;5074926;28;20020;-77
2020/12/30 08:27:14;;;;;;;6.47;2.30;;;2.50;74.30;;;;;;5075034;28;20039;-82
2020/12/30 08:29:41;;;;;;;8.30;2.80;;;2.60;74.10;;;;;;5060299;28;20480;-83
2020/12/30 08:32:35;;;;;;;6.70;3.17;;;3.20;85.60;;;;;;5060889;28;20036;-83
2020/12/30 08:35:12;;;;;;;5.00;2.10;;;3.80;85.50;;;;;;5096162;28;20016;-85
2020/12/30 08:37:51;;;;;;;3.55;1.67;;;4.20;76.00;;;;;;5094298;28;20048;-87
2020/12/30 08:40:31;;;;;;;3.10;1.80;;;4.40;72.00;;;;;;5063577;28;20051;-87
2020/12/30 08:43:37;;;;;;;3.53;1.40;;;4.60;69.80;;;;;;5097599;28;20448;-89
2020/12/30 08:46:13;;;;;;;10.13;1.85;;;4.70;67.40;;;;;;5078735;28;20111;-90
2020/12/30 08:48:45;;;;;;;;;;;4.80;66.60;;;;;;5079427;28;20024;-80
2020/12/30 08:51:11;;;;;;;4.10;1.83;;;4.80;65.80;;;;;;5075042;28;19904;-78
2020/12/30 08:53:39;;;;;;;5.18;2.47;;;4.70;65.40;;;;;;5075172;28;20030;-80
2020/12/30 08:56:08;;;;;;;2.42;1.85;;;4.60;65.50;;;;;;5074313;28;20040;-79
2020/12/30 08:58:34;;;;;;;4.45;1.90;;;4.70;65.60;;;;;;5074324;28;20101;-80
2020/12/30 09:01:01;;;;;;;4.30;2.10;;;4.70;65.50;;;;;;5074194;28;20077;-80
2020/12/30 09:03:29;;;;;;;6.28;2.55;;;4.90;65.10;;;;;;5074273;28;20057;-80
2020/12/30 09:05:58;;;;;;;9.10;3.20;;;5.10;65.00;;;;;;5092322;28;20103;-79
2020/12/30 09:08:25;;;;;;;6.40;2.63;;;5.30;64.40;;;;;;5074284;28;20515;-78
2020/12/30 09:10:53;;;;;;;3.42;2.00;;;5.60;63.70;;;;;;5074296;28;20032;-78
2020/12/30 09:13:21;;;;;;;4.15;2.08;;;5.90;62.90;;;;;;5074343;28;20020;-78
2020/12/30 09:15:54;;;;;;;4.13;2.13;;;6.30;61.60;;;;;;5074100;28;20028;-79
2020/12/30 09:18:21;;;;;;;2.90;1.30;;;6.80;59.60;;;;;;5058420;28;20039;-80
2020/12/30 09:20:47;;;;;;;5.78;1.45;;;7.10;58.10;;;;;;5074195;28;20023;-80
2020/12/30 09:23:13;;;;;;;1.48;0.85;;;7.50;56.70;;;;;;5074593;28;20383;-80
2020/12/30 09:25:40;;;;;;;4.47;1.20;;;7.70;55.40;;;;;;5057952;28;20473;-81
2020/12/30 09:28:20;;;;;;;2.22;1.13;;;8.00;53.80;;;;;;5074547;28;20020;-80
2020/12/30 09:30:47;;;;;;;2.25;1.40;;;8.20;52.70;;;;;;5074313;28;20032;-79
2020/12/30 09:33:15;;;;;;;2.30;1.02;;;8.30;52.50;;;;;;5074471;28;20165;-81
2020/12/30 09:35:44;;;;;;;2.30;0.88;;;8.30;51.70;;;;;;5077123;28;20032;-79
2020/12/30 09:38:22;;;;;;;1.70;0.73;;;8.10;51.50;;;;;;5095982;28;20043;-79
2020/12/30 09:40:51;;;;;;;5.10;1.02;;;7.90;51.60;;;;;;5096739;28;20052;-79
2020/12/30 09:43:20;;;;;;;1.25;0.80;;;7.90;52.20;;;;;;5069330;28;20108;-79
2020/12/30 09:45:48;;;;;;;2.90;0.88;;;7.80;51.90;;;;;;5066765;28;20016;-79
2020/12/30 09:48:16;;;;;;;3.38;0.90;;;7.60;51.80;;;;;;5086909;28;20365;-79
2020/12/30 09:50:44;;;;;;;2.30;1.15;;;7.30;52.30;;;;;;5073520;28;20444;-80
2020/12/30 09:53:10;;;;;;;5.35;1.55;;;7.10;53.30;;;;;;5081640;28;20032;-79
2020/12/30 09:55:38;;;;;;;2.85;0.90;;;7.10;53.80;;;;;;5082845;28;20052;-79
2020/12/30 09:58:04;;;;;;;1.35;0.77;;;6.80;53.80;;;;;;5083973;28;20023;-78
2020/12/30 10:00:32;;;;;;;2.78;0.80;;;6.80;54.30;;;;;;5085368;28;20043;-80
2020/12/30 10:02:58;;;;;;;1.35;0.70;;;7.10;54.30;;;;;;5080532;28;20395;-81
2020/12/30 10:05:23;;;;;;;5.45;1.25;;;7.10;53.90;;;;;;5063565;28;20063;-81
2020/12/30 10:07:50;;;;;;;3.28;0.98;;;6.90;54.00;;;;;;5081307;28;20545;-81
2020/12/30 10:10:16;;;;;;;1.30;0.63;;;6.80;54.20;;;;;;5099815;28;20036;-79
2020/12/30 10:12:42;;;;;;;3.92;0.95;;;6.60;54.30;;;;;;5079706;28;20511;-78
2020/12/30 10:15:10;;;;;;;3.38;0.80;;;6.70;54.40;;;;;;5078905;28;20507;-80
2020/12/30 10:17:37;;;;;;;3.10;0.82;;;6.80;54.60;;;;;;5095761;28;20044;-80
2020/12/30 10:20:05;;;;;;;4.43;0.90;;;7.10;54.00;;;;;;5095948;28;20028;-79
2020/12/30 10:22:33;;;;;;;2.38;0.80;;;7.50;53.30;;;;;;5077509;28;20084;-80
2020/12/30 10:25:04;;;;;;;2.20;0.90;;;7.90;52.20;;;;;;5077466;28;20507;-81
2020/12/30 10:27:32;;;;;;;6.80;0.77;;;7.90;50.70;;;;;;5095558;28;20452;-81
2020/12/30 10:29:59;;;;;;;3.20;0.98;;;7.50;49.80;;;;;;5074991;28;20033;-80
2020/12/30 10:32:25;;;;;;;2.33;0.55;;;6.80;51.20;;;;;;5076932;28;20125;-78
2020/12/30 10:34:51;;;;;;;1.27;0.55;;;6.40;53.00;;;;;;5054908;28;20496;-76
2020/12/30 10:37:17;;;;;;;1.65;0.40;;;6.50;53.70;;;;;;5036971;28;20505;-77
2020/12/30 10:40:05;;;;;;;1.08;0.30;;;6.30;53.20;;;;;;5037214;28;20025;-88
2020/12/30 10:42:32;;;;;;;1.00;0.50;;;6.10;53.60;;;;;;5038231;28;20024;-83
2020/12/30 10:44:57;;;;;;;1.58;0.50;;;5.80;54.60;;;;;;5036682;28;20082;-77
2020/12/30 10:47:23;;;;;;;1.95;0.70;;;5.90;55.30;;;;;;5036925;28;20029;-81
2020/12/30 10:49:50;;;;;;;2.08;0.85;;;5.80;55.80;;;;;;5036935;28;20017;-80
2020/12/30 10:52:15;;;;;;;6.10;0.60;;;5.70;56.20;;;;;;5020300;28;20052;-76
2020/12/30 10:54:43;;;;;;;2.80;0.60;;;5.70;56.90;;;;;;5054412;28;20021;-80
2020/12/30 10:57:15;;;;;;;1.00;0.60;;;5.80;56.90;;;;;;5036353;28;20059;-80
2020/12/30 10:59:44;;;;;;;3.90;0.65;;;5.80;56.20;;;;;;5054404;28;20029;-80
2020/12/30 11:02:12;;;;;;;3.33;0.73;;;5.70;56.60;;;;;;5020630;28;20029;-80
2020/12/30 11:04:38;;;;;;;2.75;0.70;;;5.70;57.20;;;;;;5020636;28;20116;-79
2020/12/30 11:07:04;;;;;;;2.92;0.75;;;5.60;57.80;;;;;;5053907;28;20056;-80
2020/12/30 11:09:30;;;;;;;3.17;1.00;;;5.50;58.10;;;;;;5036200;28;20036;-81
2020/12/30 11:12:02;;;;;;;2.35;0.85;;;5.60;58.30;;;;;;5020084;28;20071;-80
2020/12/30 11:14:28;;;;;;;1.38;0.52;;;5.30;59.20;;;;;;5020643;28;20032;-81
2020/12/30 11:16:59;;;;;;;3.75;0.80;;;5.20;59.80;;;;;;5038243;28;20037;-79
2020/12/30 11:19:24;;;;;;;3.97;1.17;;;5.10;60.80;;;;;;5040896;28;20025;-80
2020/12/30 11:21:55;;;;;;;2.65;0.90;;;5.00;61.20;;;;;;5054287;28;20104;-81
2020/12/30 11:24:22;;;;;;;2.60;0.88;;;5.00;61.30;;;;;;5070018;28;20021;-81
2020/12/30 11:26:51;;;;;;;3.47;1.40;;;5.00;61.40;;;;;;5050092;28;20032;-79
2020/12/30 11:29:18;;;;;;;3.90;0.90;;;4.90;61.70;;;;;;5024127;28;20488;-80
2020/12/30 11:31:45;;;;;;;2.45;1.02;;;4.90;62.00;;;;;;5037456;28;20029;-79
2020/12/30 11:34:11;;;;;;;3.70;1.40;;;5.00;62.70;;;;;;5036823;28;20025;-79
2020/12/30 11:36:37;;;;;;;2.50;1.27;;;5.00;63.10;;;;;;5036471;28;20045;-80
2020/12/30 11:39:04;;;;;;;4.35;1.48;;;5.00;62.80;;;;;;5020065;28;20044;-80
2020/12/30 11:41:33;;;;;;;4.22;1.20;;;4.90;63.60;;;;;;5037465;28;20037;-80
2020/12/30 11:44:06;;;;;;;3.28;1.15;;;4.90;63.50;;;;;;5054143;28;20031;-80
2020/12/30 11:46:32;;;;;;;3.95;1.38;;;5.10;63.80;;;;;;5036005;28;20025;-81
2020/12/30 11:49:04;;;;;;;3.63;1.15;;;5.40;62.90;;;;;;5035900;28;20032;-80
2020/12/30 11:51:36;;;;;;;4.93;1.30;;;5.50;62.20;;;;;;5036031;28;20021;-80
2020/12/30 11:54:02;;;;;;;4.00;1.35;;;5.50;62.20;;;;;;5035823;28;20025;-79
2020/12/30 11:56:29;;;;;;;4.05;1.33;;;5.30;62.30;;;;;;5035209;28;20029;-81
2020/12/30 11:58:55;;;;;;;2.60;0.90;;;5.10;63.40;;;;;;5035329;28;20121;-80
2020/12/30 12:01:52;;;;;;;1.73;0.80;;;5.00;63.80;;;;;;5018177;28;20049;-80
2020/12/30 12:04:21;;;;;;;0.82;0.50;;;5.00;64.10;;;;;;5033780;28;20112;-81
2020/12/30 12:06:46;;;;;;;1.60;0.70;;;5.00;64.10;;;;;;5019286;28;20025;-80
2020/12/30 12:09:12;;;;;;;3.67;1.35;;;5.10;64.10;;;;;;5019343;28;20100;-80
2020/12/30 12:11:41;;;;;;;3.83;0.80;;;6.20;63.10;;;;;;5053766;28;20047;-81
2020/12/30 12:14:07;;;;;;;2.65;0.90;;;8.20;58.70;;;;;;5053790;28;20021;-82
2020/12/30 12:16:33;;;;;;;3.35;1.00;;;10.50;52.90;;;;;;5052794;28;20045;-82
2020/12/30 12:18:59;;;;;;;2.13;0.95;;;11.80;47.90;;;;;;5053417;28;20139;-82
2020/12/30 12:21:25;;;;;;;2.33;0.82;;;11.50;45.00;;;;;;5035940;28;20088;-82
2020/12/30 12:23:51;;;;;;;3.05;0.90;;;11.20;44.30;;;;;;5058220;28;20067;-78
2020/12/30 12:26:25;;;;;;;3.35;1.35;;;10.30;44.80;;;;;;5064241;28;20029;-82
2020/12/30 12:28:51;;;;;;;1.38;1.02;;;10.10;46.10;;;;;;5056157;28;20021;-84
2020/12/30 12:31:19;;;;;;;2.33;0.60;;;11.10;45.70;;;;;;5042531;28;20514;-83
2020/12/30 12:33:45;;;;;;;1.90;0.90;;;12.60;43.60;;;;;;5036448;28;20021;-83
2020/12/30 12:36:12;;;;;;;0.98;0.55;;;13.50;40.80;;;;;;5040241;28;20037;-81
2020/12/30 12:38:39;;;;;;;1.73;1.08;;;12.60;39.60;;;;;;5038813;28;20136;-82
2020/12/30 12:41:07;;;;;;;1.55;0.60;;;10.60;40.60;;;;;;5056258;28;20037;-82
2020/12/30 12:43:35;;;;;;;2.70;0.82;;;8.70;44.20;;;;;;5056157;28;20115;-79
2020/12/30 12:46:20;;;;;;;2.20;0.85;;;7.90;48.40;;;;;;5052964;28;20366;-78
2020/12/30 12:48:46;;;;;;;0.60;0.57;;;7.20;52.00;;;;;;5034989;28;20032;-78
2020/12/30 12:51:12;;;;;;;1.17;0.73;;;6.80;54.20;;;;;;5052934;28;20036;-78
2020/12/30 12:53:41;;;;;;;1.13;0.88;;;6.50;56.40;;;;;;5053776;28;20029;-80
2020/12/30 12:56:07;;;;;;;2.40;1.27;;;6.10;58.50;;;;;;5035226;28;20461;-80
2020/12/30 12:58:33;;;;;;;1.83;1.00;;;6.00;59.80;;;;;;5038689;28;20108;-80
2020/12/30 13:01:00;;;;;;;1.80;0.90;;;6.00;60.60;;;;;;5037280;28;20029;-81
2020/12/30 13:03:25;;;;;;;2.10;0.80;;;5.80;61.80;;;;;;5034546;28;20060;-79
2020/12/30 13:05:51;;;;;;;2.40;1.40;;;5.80;62.20;;;;;;5034441;28;20430;-78